EHFD

F3-fb-1 Sea

F3-fb-1 Sea, The Netherlands
METAR EHFD 160555Z AUTO 23020KT //// // FEW011/// SCT015/// BKN019/// 19/17 Q1010 RE// W///H///
Observed Flight Rules
Aug-16 @ 05:55 UTC (20 minutes ago)
Wind Clouds
230° at 20 knots
  • Few at 1,100' AGL
  • Scattered at 1,500' AGL
  • Broken at 1,900' AGL
Temperatures Readings
Current 19°C / 66°F
Dewpoint 17°C / 63°F
Humidity 88%
Altimeter 29.82" Hg
Pressure 1010 hPa
Elevation 50
METAR EHFD 160555Z AUTO 23020KT //// // FEW011/// SCT015/// BKN019/// 19/17 Q1010 RE// W///H///
Observed Flight Rules
Aug-16 @ 05:55 UTC
(20 minutes ago)
Wind
230° at 20 knots
Clouds
  • Few at 1,100' AGL
  • Scattered at 1,500' AGL
  • Broken at 1,900' AGL
Temperature Dewpoint
19°C / 66°F 17°C / 63°F
Humidity Altimeter Pressure
88% 29.82" Hg 1010 hPa